createdAt,value
2023-02-21T00:01:16.688Z,96.80
2023-02-21T00:05:37.533Z,96.84
2023-02-21T00:09:58.247Z,97.99
2023-02-21T00:14:19.800Z,97.14
2023-02-21T00:18:40.330Z,98.04
2023-02-21T00:23:00.410Z,99.43
2023-02-21T00:27:20.544Z,95.35
2023-02-21T00:31:42.852Z,87.58
2023-02-21T00:36:03.446Z,90.40
2023-02-21T00:40:24.701Z,90.56
2023-02-21T00:44:44.963Z,91.08
2023-02-21T00:49:06.880Z,91.96
2023-02-21T00:53:27.078Z,92.17
2023-02-21T00:57:47.798Z,92.47
2023-02-21T01:02:08.030Z,91.41
2023-02-21T01:06:32.179Z,90.02
2023-02-21T01:10:52.759Z,89.80
2023-02-21T01:15:13.005Z,90.08
2023-02-21T01:19:33.897Z,91.58
2023-02-21T01:23:55.800Z,91.78
2023-02-21T01:28:15.884Z,92.01
2023-02-21T01:32:36.677Z,91.62
2023-02-21T01:37:00.362Z,90.10
2023-02-21T01:41:23.771Z,88.42
2023-02-21T01:46:05.592Z,84.06
2023-02-21T01:50:30.752Z,82.40
2023-02-21T01:54:54.877Z,82.30
2023-02-21T01:59:20.135Z,80.70
2023-02-21T02:03:40.912Z,84.21
2023-02-21T02:08:04.725Z,85.09
2023-02-21T02:12:36.033Z,86.61
2023-02-21T02:16:45.635Z,87.30
2023-02-21T02:21:06.656Z,87.50
2023-02-21T02:25:22.969Z,86.45
2023-02-21T02:29:50.831Z,88.24
2023-02-21T02:34:10.533Z,89.93
2023-02-21T02:38:23.906Z,91.28
2023-02-21T02:42:40.299Z,92.34
2023-02-21T02:46:47.091Z,91.74
2023-02-21T02:50:52.464Z,92.61
2023-02-21T02:55:05.111Z,91.78
2023-02-21T02:59:16.785Z,91.74
2023-02-21T03:03:39.868Z,92.32
2023-02-21T03:07:52.260Z,92.29
2023-02-21T03:12:02.926Z,93.10
2023-02-21T03:16:14.049Z,92.64
2023-02-21T03:20:18.619Z,92.51
2023-02-21T03:24:23.103Z,90.25
2023-02-21T03:28:28.408Z,90.34
2023-02-21T03:32:34.506Z,88.98
2023-02-21T03:36:39.694Z,87.98
2023-02-21T03:40:42.865Z,87.96
2023-02-21T03:44:46.702Z,87.55
2023-02-21T03:48:49.910Z,86.63
2023-02-21T03:52:53.107Z,84.80
2023-02-21T03:56:56.258Z,83.71
2023-02-21T04:01:00.970Z,83.81
2023-02-21T04:05:04.562Z,82.71
2023-02-21T04:09:10.197Z,81.21
2023-02-21T04:13:16.110Z,79.77
2023-02-21T04:17:20.624Z,79.86
2023-02-21T04:21:23.822Z,81.80
2023-02-21T04:25:26.815Z,81.50
2023-02-21T04:29:30.054Z,81.66
2023-02-21T04:33:34.783Z,80.71
2023-02-21T04:37:38.064Z,80.86
2023-02-21T04:41:41.432Z,80.28
2023-02-21T04:45:44.239Z,79.37
2023-02-21T04:49:52.795Z,79.33
2023-02-21T04:53:56.851Z,78.62
2023-02-21T04:58:00.885Z,78.42
2023-02-21T05:02:06.113Z,78.91
2023-02-21T05:06:10.556Z,79.42
2023-02-21T05:10:13.927Z,79.98
2023-02-21T05:14:18.515Z,79.49
2023-02-21T05:18:28.409Z,79.41
2023-02-21T05:22:32.918Z,79.85
2023-02-21T05:26:38.475Z,78.54
2023-02-21T05:30:41.451Z,77.85
2023-02-21T05:34:47.948Z,77.73
2023-02-21T05:38:54.667Z,76.11
2023-02-21T05:42:57.694Z,74.56
2023-02-21T05:47:02.540Z,73.07
2023-02-21T05:51:05.698Z,71.96
2023-02-21T05:55:10.296Z,71.61
2023-02-21T05:59:15.980Z,72.48
2023-02-21T06:03:19.029Z,72.22
2023-02-21T06:07:22.100Z,70.78
2023-02-21T06:11:33.509Z,71.09
2023-02-21T06:15:36.744Z,71.48
2023-02-21T06:19:39.830Z,70.59
2023-02-21T06:23:42.830Z,70.98
2023-02-21T06:27:47.353Z,71.92
2023-02-21T06:31:52.457Z,72.18
2023-02-21T06:35:55.758Z,70.53
2023-02-21T06:39:58.726Z,68.39
2023-02-21T06:44:03.149Z,67.76
2023-02-21T06:48:08.486Z,67.49
2023-02-21T06:52:12.813Z,67.41
2023-02-21T06:56:16.080Z,68.16
2023-02-21T07:00:22.189Z,67.84
2023-02-21T07:04:25.679Z,67.52
2023-02-21T07:08:28.588Z,66.17
2023-02-21T07:12:31.528Z,64.93
2023-02-21T07:16:35.866Z,64.17
2023-02-21T07:20:41.580Z,62.65
2023-02-21T07:24:47.212Z,62.22
2023-02-21T07:28:50.911Z,63.75
2023-02-21T07:36:57.088Z,64.96
2023-02-21T07:41:04.822Z,66.36
2023-02-21T07:45:08.270Z,67.50
2023-02-21T07:49:12.596Z,69.32
2023-02-21T07:53:17.092Z,69.93
2023-02-21T07:57:20.463Z,69.13
2023-02-21T08:01:26.218Z,69.29
2023-02-21T08:05:33.886Z,68.80
2023-02-21T08:09:40.073Z,71.17
2023-02-21T08:13:43.059Z,71.18
2023-02-21T08:17:46.200Z,71.96
2023-02-21T08:21:51.303Z,71.06
2023-02-21T08:25:54.335Z,71.23
2023-02-21T08:29:57.389Z,72.17
2023-02-21T08:34:00.408Z,69.83
2023-02-21T08:38:05.206Z,72.14
2023-02-21T08:42:08.365Z,71.66
2023-02-21T08:46:11.339Z,71.63
2023-02-21T08:50:15.302Z,71.90
2023-02-21T08:54:19.797Z,72.38
2023-02-21T08:58:22.973Z,72.10
2023-02-21T09:02:27.337Z,72.60
2023-02-21T09:06:30.801Z,71.67
2023-02-21T09:10:35.318Z,70.48
2023-02-21T09:14:39.686Z,69.55
2023-02-21T09:18:42.854Z,68.13
2023-02-21T09:22:48.938Z,67.24
2023-02-21T09:26:55.509Z,65.36
2023-02-21T09:30:58.753Z,62.26
2023-02-21T09:35:01.205Z,60.38
2023-02-21T09:39:06.753Z,59.38
2023-02-21T09:43:16.515Z,62.11
2023-02-21T09:47:28.334Z,61.90
2023-02-21T09:51:32.720Z,62.80
2023-02-21T09:55:41.421Z,62.58
2023-02-21T09:59:46.512Z,62.61
2023-02-21T10:03:58.962Z,62.42
2023-02-21T10:08:10.760Z,62.21
2023-02-21T10:12:26.160Z,61.06
2023-02-21T10:16:38.934Z,60.79
2023-02-21T10:20:46.982Z,59.48
2023-02-21T10:24:50.776Z,58.98
2023-02-21T10:28:56.931Z,60.48
2023-02-21T10:33:06.843Z,59.65
2023-02-21T10:37:27.681Z,60.69
2023-02-21T10:41:32.643Z,57.66
2023-02-21T10:45:46.627Z,59.45
2023-02-21T10:49:59.737Z,61.46
2023-02-21T10:54:21.962Z,62.36
2023-02-21T10:58:29.445Z,61.23
2023-02-21T11:02:35.987Z,62.76
2023-02-21T11:06:45.885Z,62.70
2023-02-21T11:10:56.632Z,62.78
2023-02-21T11:15:17.770Z,63.79
2023-02-21T11:19:22.362Z,62.56
2023-02-21T11:23:29.751Z,61.57
2023-02-21T11:27:36.287Z,61.90
2023-02-21T11:31:41.632Z,62.84
2023-02-21T11:35:48.378Z,62.11
2023-02-21T11:39:53.870Z,61.93
2023-02-21T11:43:58.041Z,62.22
2023-02-21T11:48:06.670Z,63.22
2023-02-21T11:52:13.467Z,63.71
2023-02-21T11:56:33.160Z,64.30
2023-02-21T12:01:08.380Z,63.89
2023-02-21T12:05:32.218Z,64.86
2023-02-21T12:09:46.401Z,66.50
2023-02-21T12:14:02.862Z,66.23
2023-02-21T12:18:25.019Z,67.07
2023-02-21T12:22:45.689Z,67.15
2023-02-21T12:26:56.828Z,66.24
2023-02-21T12:31:13.967Z,66.68
2023-02-21T12:36:06.079Z,66.80
2023-02-21T12:40:21.912Z,67.08
2023-02-21T12:44:39.365Z,65.81
2023-02-21T12:48:49.903Z,66.78
2023-02-21T12:53:03.231Z,66.16
2023-02-21T12:57:12.719Z,65.85
2023-02-21T13:01:20.776Z,66.85
2023-02-21T13:05:35.246Z,67.14
2023-02-21T13:09:44.846Z,67.33
2023-02-21T13:13:48.923Z,68.75
2023-02-21T13:17:58.366Z,68.54
2023-02-21T13:22:14.850Z,68.70
2023-02-21T13:26:42.074Z,67.94
2023-02-21T13:30:51.939Z,69.44
2023-02-21T13:35:00.844Z,69.28
2023-02-21T13:39:16.857Z,69.20
2023-02-21T13:43:25.759Z,69.55
2023-02-21T13:47:28.625Z,69.72
2023-02-21T13:51:48.961Z,69.60
2023-02-21T13:56:40.710Z,68.27
2023-02-21T14:01:18.380Z,69.50
2023-02-21T14:05:25.133Z,70.09
2023-02-21T14:09:28.470Z,69.63
2023-02-21T14:13:36.635Z,70.85
2023-02-21T14:17:39.578Z,69.66
2023-02-21T14:21:42.810Z,70.17
2023-02-21T14:25:58.493Z,69.83
2023-02-21T14:30:37.512Z,69.61
2023-02-21T14:34:50.092Z,69.50
2023-02-21T14:38:58.723Z,69.59
2023-02-21T14:43:21.844Z,69.90
2023-02-21T14:47:42.415Z,69.85
2023-02-21T14:52:19.010Z,70.06
2023-02-21T14:56:48.611Z,70.30
2023-02-21T15:01:05.410Z,70.19
2023-02-21T15:05:18.149Z,70.08
2023-02-21T15:09:23.159Z,70.89
2023-02-21T15:13:29.796Z,70.97
2023-02-21T15:17:32.378Z,70.96
2023-02-21T15:21:36.763Z,71.90
2023-02-21T15:25:41.878Z,71.97
2023-02-21T15:29:47.021Z,72.49
2023-02-21T15:33:54.758Z,72.48
2023-02-21T15:38:00.535Z,72.71
2023-02-21T15:42:07.245Z,72.96
2023-02-21T15:46:14.942Z,73.19
2023-02-21T15:50:25.989Z,73.43
2023-02-21T15:54:32.511Z,73.13
2023-02-21T15:58:36.088Z,73.50
2023-02-21T16:02:39.180Z,72.91
2023-02-21T16:06:48.929Z,73.27
2023-02-21T16:10:53.768Z,73.08
2023-02-21T16:15:00.383Z,74.32
2023-02-21T16:19:03.873Z,74.93
2023-02-21T16:23:25.788Z,74.60
2023-02-21T16:27:29.840Z,73.96
2023-02-21T16:31:36.969Z,74.32
2023-02-21T16:35:43.643Z,74.86
2023-02-21T16:39:46.743Z,74.70
2023-02-21T16:43:51.057Z,75.45
2023-02-21T16:47:58.395Z,75.39
2023-02-21T16:52:04.266Z,75.48
2023-02-21T16:56:09.889Z,75.90
2023-02-21T17:00:19.891Z,75.53
2023-02-21T17:04:24.274Z,76.13
2023-02-21T17:08:28.555Z,75.91
2023-02-21T17:12:30.924Z,76.24
2023-02-21T17:16:34.988Z,76.18
2023-02-21T17:20:38.140Z,76.53
2023-02-21T17:24:43.567Z,76.36
2023-02-21T17:28:46.569Z,76.43
2023-02-21T17:32:52.220Z,76.78
2023-02-21T17:36:55.380Z,76.33
2023-02-21T17:40:59.910Z,77.06
2023-02-21T17:45:04.354Z,77.03
2023-02-21T17:49:08.614Z,76.64
2023-02-21T17:53:11.127Z,76.75
2023-02-21T17:57:14.262Z,77.26
2023-02-21T18:01:19.230Z,77.90
2023-02-21T18:05:24.343Z,78.17
2023-02-21T18:09:27.389Z,78.05
2023-02-21T18:13:30.156Z,77.67
2023-02-21T18:17:33.131Z,77.55
2023-02-21T18:21:41.423Z,77.76
2023-02-21T18:25:44.738Z,77.77
2023-02-21T18:29:54.642Z,77.98
2023-02-21T18:33:57.394Z,77.96
2023-02-21T18:38:01.905Z,78.04
2023-02-21T18:42:07.086Z,78.26
2023-02-21T18:46:12.375Z,77.64
2023-02-21T18:50:15.427Z,78.50
2023-02-21T18:54:21.405Z,78.93
2023-02-21T18:58:24.707Z,78.79
2023-02-21T19:02:28.447Z,78.78
2023-02-21T19:06:33.806Z,79.38
2023-02-21T19:10:38.585Z,80.27
2023-02-21T19:14:42.241Z,80.41
2023-02-21T19:18:47.935Z,80.76
2023-02-21T19:22:52.357Z,81.75
2023-02-21T19:26:57.436Z,82.78
2023-02-21T19:31:01.048Z,83.43
2023-02-21T19:35:04.962Z,83.52
2023-02-21T19:39:09.230Z,84.32
2023-02-21T19:43:13.657Z,84.86
2023-02-21T19:47:17.046Z,85.57
2023-02-21T19:51:22.130Z,85.41
2023-02-21T19:55:25.982Z,85.61
2023-02-21T19:59:30.376Z,86.86
2023-02-21T20:03:34.246Z,87.42
2023-02-21T20:07:37.215Z,88.62
2023-02-21T20:11:40.591Z,89.30
2023-02-21T20:15:45.124Z,89.24
2023-02-21T20:19:54.098Z,88.41
2023-02-21T20:23:58.104Z,88.89
2023-02-21T20:28:01.437Z,89.66
2023-02-21T20:32:07.338Z,89.06
2023-02-21T20:36:10.838Z,89.30
2023-02-21T20:40:16.074Z,89.39
2023-02-21T20:44:19.097Z,90.22
2023-02-21T20:48:25.722Z,89.30
2023-02-21T20:52:28.833Z,88.88
2023-02-21T20:56:34.009Z,88.60
2023-02-21T21:00:37.991Z,87.77
2023-02-21T21:04:45.982Z,87.32
2023-02-21T21:08:49.342Z,86.98
2023-02-21T21:13:04.712Z,86.50
2023-02-21T21:17:10.241Z,86.65
2023-02-21T21:21:19.012Z,86.92
2023-02-21T21:25:26.196Z,87.33
2023-02-21T21:29:32.568Z,87.11
2023-02-21T21:33:35.750Z,87.79
2023-02-21T21:37:40.501Z,88.62
2023-02-21T21:41:46.639Z,89.16
2023-02-21T21:45:49.496Z,89.53
2023-02-21T21:49:52.731Z,90.00
2023-02-21T21:53:57.952Z,90.71
2023-02-21T21:58:01.763Z,91.90
2023-02-21T22:02:07.588Z,92.47
2023-02-21T22:06:13.478Z,92.76
2023-02-21T22:10:19.267Z,93.19
2023-02-21T22:14:23.555Z,92.56
2023-02-21T22:18:26.336Z,92.26
2023-02-21T22:22:29.245Z,94.82
2023-02-21T22:26:33.567Z,96.21
2023-02-21T22:30:37.180Z,97.76
2023-02-21T22:34:40.908Z,98.13
2023-02-21T22:38:47.664Z,97.93
2023-02-21T22:42:52.729Z,97.14
2023-02-21T22:46:58.884Z,97.74
2023-02-21T22:51:01.986Z,98.09
2023-02-21T22:55:05.656Z,97.78
2023-02-21T22:59:12.813Z,99.02
2023-02-21T23:03:16.643Z,100.00
2023-02-21T23:07:21.518Z,100.00
2023-02-21T23:11:25.086Z,100.00
2023-02-21T23:15:29.191Z,100.00
2023-02-21T23:19:32.407Z,100.00
2023-02-21T23:23:35.974Z,100.00
2023-02-21T23:27:41.377Z,100.00
2023-02-21T23:31:46.092Z,100.00
2023-02-21T23:35:51.976Z,100.00
2023-02-21T23:39:54.846Z,100.00
2023-02-21T23:44:00.760Z,100.00
2023-02-21T23:48:08.155Z,100.00
2023-02-21T23:52:12.407Z,100.00
2023-02-21T23:56:15.177Z,100.00
